Time;durP1;ratioP1;P1;durP2;ratioP2;P2;SDS_P1;SDS_P2;PMS_P1;PMS_P2;Temp;Humidity;BMP_temperature;BMP_pressure;BME280_temperature;BME280_humidity;BME280_pressure;Samples;Min_cycle;Max_cycle;Signal;HPM_P1;HPM_P2
2022/03/15 00:00:35;;;;;;;14.63;6.30;;;;;2.10;97467.00;;;;8395728;28;20293;-79
2022/03/15 00:04:38;;;;;;;14.60;6.33;;;;;2.10;97467.00;;;;8407066;28;20671;-77
2022/03/15 00:08:44;;;;;;;9.50;6.03;;;;;2.20;97468.00;;;;8406982;28;20231;-77
2022/03/15 00:12:48;;;;;;;15.97;6.67;;;;;2.30;97472.00;;;;8406941;28;20258;-80
2022/03/15 00:16:52;;;;;;;12.53;5.80;;;;;2.30;97474.00;;;;8407997;28;20285;-80
2022/03/15 00:20:54;;;;;;;11.73;6.07;;;;;2.30;97468.00;;;;8415360;28;20215;-81
2022/03/15 00:24:59;;;;;;;12.47;5.30;;;;;2.30;97470.00;;;;8413567;28;20230;-78
2022/03/15 00:29:02;;;;;;;11.67;5.67;;;;;2.30;97457.00;;;;8423700;28;20227;-80
2022/03/15 00:33:05;;;;;;;8.70;5.50;;;;;2.30;97463.00;;;;8410410;28;20232;-81
2022/03/15 00:37:08;;;;;;;14.90;6.50;;;;;2.30;97457.00;;;;8415360;28;20223;-78
2022/03/15 00:41:13;;;;;;;12.57;5.53;;;;;2.30;97454.00;;;;8409330;28;20224;-79
2022/03/15 00:45:16;;;;;;;14.87;5.53;;;;;2.30;97462.00;;;;8410640;28;20286;-73
2022/03/15 00:49:20;;;;;;;11.40;5.17;;;;;2.30;97452.00;;;;8410790;28;20272;-75
2022/03/15 00:53:22;;;;;;;17.63;5.73;;;;;2.30;97443.00;;;;8410114;28;20284;-79
2022/03/15 00:57:27;;;;;;;18.57;6.10;;;;;2.30;97426.00;;;;8415434;28;20280;-79
2022/03/15 01:01:30;;;;;;;13.90;6.23;;;;;2.30;97440.00;;;;8404723;28;20254;-75
2022/03/15 01:05:33;;;;;;;13.03;5.77;;;;;2.70;97436.00;;;;8417688;28;20322;-73
2022/03/15 01:09:36;;;;;;;15.07;5.93;;;;;3.00;97441.00;;;;8409766;28;20227;-81
2022/03/15 01:13:40;;;;;;;24.17;6.37;;;;;3.10;97435.00;;;;8403895;28;20223;-74
2022/03/15 01:17:43;;;;;;;14.47;6.10;;;;;3.00;97435.00;;;;8410113;28;20273;-78
2022/03/15 01:21:46;;;;;;;16.00;7.10;;;;;3.00;97428.00;;;;8415018;28;20215;-77
2022/03/15 01:25:49;;;;;;;15.67;5.93;;;;;3.00;97427.00;;;;8410191;28;20284;-81
2022/03/15 01:29:54;;;;;;;16.03;6.13;;;;;2.80;97419.00;;;;8410594;28;20231;-81
2022/03/15 01:33:57;;;;;;;14.83;5.50;;;;;2.60;97409.00;;;;8413759;28;20215;-81
2022/03/15 01:38:00;;;;;;;17.93;6.10;;;;;2.50;97404.00;;;;8412701;28;20219;-76
2022/03/15 01:42:03;;;;;;;17.53;6.77;;;;;2.60;97403.00;;;;8399253;28;20569;-80
2022/03/15 01:46:08;;;;;;;11.47;5.43;;;;;2.90;97400.00;;;;8410025;28;20239;-75
2022/03/15 01:50:11;;;;;;;16.80;5.97;;;;;3.30;97395.00;;;;8408840;28;20306;-78
2022/03/15 01:54:14;;;;;;;17.43;6.27;;;;;3.50;97392.00;;;;8409558;28;20243;-80
2022/03/15 01:58:17;;;;;;;14.50;5.20;;;;;3.90;97381.00;;;;8415187;28;20280;-75
2022/03/15 02:02:22;;;;;;;13.30;5.73;;;;;4.20;97380.00;;;;8415607;28;20616;-76
2022/03/15 02:06:25;;;;;;;15.00;5.77;;;;;4.50;97381.00;;;;8400448;28;20275;-79
2022/03/15 02:10:31;;;;;;;12.73;5.40;;;;;4.60;97386.00;;;;8408218;28;20220;-76
2022/03/15 02:14:35;;;;;;;15.00;4.83;;;;;4.60;97380.00;;;;8395977;28;20246;-73
2022/03/15 02:18:40;;;;;;;14.80;6.03;;;;;4.80;97373.00;;;;8404248;28;20611;-76
2022/03/15 02:22:44;;;;;;;15.37;5.77;;;;;4.90;97375.00;;;;8403781;28;20738;-78
2022/03/15 02:26:47;;;;;;;12.63;6.40;;;;;5.00;97373.00;;;;8415658;28;20798;-80
2022/03/15 02:30:50;;;;;;;17.87;6.43;;;;;5.00;97379.00;;;;8403944;28;20260;-81
2022/03/15 02:34:53;;;;;;;13.50;6.33;;;;;5.10;97377.00;;;;8408885;28;20290;-81
2022/03/15 02:38:57;;;;;;;11.93;5.17;;;;;5.00;97373.00;;;;8410989;28;20229;-81
2022/03/15 02:43:01;;;;;;;11.80;6.00;;;;;5.00;97367.00;;;;8406042;28;20261;-80
2022/03/15 02:47:04;;;;;;;13.07;5.87;;;;;5.00;97367.00;;;;8404739;28;20229;-83
2022/03/15 02:51:10;;;;;;;20.77;6.40;;;;;5.00;97360.00;;;;8408467;28;20739;-80
2022/03/15 02:55:16;;;;;;;11.90;5.70;;;;;5.00;97362.00;;;;8402417;28;20339;-82
2022/03/15 02:59:19;;;;;;;15.90;6.17;;;;;5.10;97365.00;;;;8406820;28;20221;-81
2022/03/15 03:03:22;;;;;;;11.67;5.43;;;;;5.00;97373.00;;;;8413720;23;20222;-84
2022/03/15 03:07:26;;;;;;;11.63;5.97;;;;;4.90;97373.00;;;;8411496;28;20237;-84
2022/03/15 03:11:31;;;;;;;15.07;6.60;;;;;4.70;97369.00;;;;8420231;28;20223;-83
2022/03/15 03:15:34;;;;;;;11.03;6.30;;;;;4.60;97358.00;;;;8417246;28;20235;-83
2022/03/15 03:19:38;;;;;;;14.03;5.70;;;;;4.70;97361.00;;;;8416686;28;20274;-81
2022/03/15 03:23:41;;;;;;;12.97;5.63;;;;;4.80;97359.00;;;;8414308;28;20231;-79
2022/03/15 03:27:46;;;;;;;11.67;5.50;;;;;4.80;97355.00;;;;8415585;28;20263;-83
2022/03/15 03:31:49;;;;;;;9.83;5.60;;;;;4.90;97355.00;;;;8404910;28;20253;-83
2022/03/15 03:35:53;;;;;;;12.70;5.97;;;;;4.90;97360.00;;;;8421755;28;20234;-82
2022/03/15 03:39:55;;;;;;;9.27;5.67;;;;;4.90;97351.00;;;;8415103;28;20302;-81
2022/03/15 03:44:00;;;;;;;15.67;6.23;;;;;4.80;97351.00;;;;8414587;28;20227;-80
2022/03/15 03:48:04;;;;;;;17.00;5.90;;;;;4.70;97352.00;;;;8410486;28;20240;-79
2022/03/15 03:52:08;;;;;;;17.63;6.40;;;;;4.50;97344.00;;;;8414515;28;20225;-79
2022/03/15 03:56:11;;;;;;;13.17;5.47;;;;;4.30;97353.00;;;;8420668;28;20745;-77
2022/03/15 04:00:17;;;;;;;15.30;6.13;;;;;4.10;97350.00;;;;8408974;28;20220;-77
2022/03/15 04:04:20;;;;;;;15.37;6.80;;;;;4.00;97356.00;;;;8418362;28;20219;-73
2022/03/15 04:08:24;;;;;;;12.97;6.80;;;;;4.00;97349.00;;;;8418687;28;20232;-75
2022/03/15 04:12:28;;;;;;;19.10;6.60;;;;;4.00;97349.00;;;;8424928;28;21280;-74
2022/03/15 04:16:33;;;;;;;14.37;6.13;;;;;4.00;97332.00;;;;8416765;28;20227;-75
2022/03/15 04:20:36;;;;;;;13.93;6.50;;;;;4.00;97321.00;;;;8424408;28;20238;-78
2022/03/15 04:24:39;;;;;;;13.17;6.77;;;;;4.00;97331.00;;;;8437486;28;20275;-73
2022/03/15 04:28:42;;;;;;;16.90;7.00;;;;;4.10;97333.00;;;;8425852;28;20225;-77
2022/03/15 04:32:46;;;;;;;13.67;5.83;;;;;4.30;97337.00;;;;8420770;28;20741;-77
2022/03/15 04:36:49;;;;;;;14.97;6.40;;;;;4.40;97341.00;;;;8427189;28;20307;-80
2022/03/15 04:40:52;;;;;;;12.17;6.33;;;;;4.40;97337.00;;;;8426229;28;20281;-75
2022/03/15 04:44:55;;;;;;;19.37;6.77;;;;;4.50;97316.00;;;;8438431;28;20218;-81
2022/03/15 04:49:00;;;;;;;11.40;6.30;;;;;4.60;97328.00;;;;8435130;28;20227;-79
2022/03/15 04:53:03;;;;;;;15.90;6.37;;;;;4.70;97324.00;;;;8426525;28;20208;-79
2022/03/15 04:57:06;;;;;;;15.50;6.97;;;;;4.70;97322.00;;;;8427679;28;20233;-77
2022/03/15 05:01:09;;;;;;;16.37;6.60;;;;;4.70;97320.00;;;;8428275;28;20223;-76
2022/03/15 05:05:14;;;;;;;22.60;6.50;;;;;4.80;97311.00;;;;8438968;28;20241;-81
2022/03/15 05:09:17;;;;;;;14.43;6.23;;;;;4.80;97314.00;;;;8432596;27;20224;-78
2022/03/15 05:13:20;;;;;;;11.10;6.23;;;;;4.80;97315.00;;;;8448838;27;20287;-81
2022/03/15 05:17:24;;;;;;;11.67;5.90;;;;;4.80;97310.00;;;;8445103;27;20234;-76
2022/03/15 05:21:28;;;;;;;9.53;6.03;;;;;4.80;97308.00;;;;8455119;27;20215;-78
2022/03/15 05:25:31;;;;;;;17.73;6.27;;;;;4.80;97298.00;;;;8430511;28;20232;-79
2022/03/15 05:29:34;;;;;;;16.77;7.20;;;;;4.70;97301.00;;;;8442147;27;20214;-78
2022/03/15 05:33:37;;;;;;;13.43;6.93;;;;;4.70;97298.00;;;;8439177;27;20223;-77
2022/03/15 05:37:42;;;;;;;13.30;6.93;;;;;4.70;97286.00;;;;8442813;27;20231;-78
2022/03/15 05:41:45;;;;;;;17.47;6.20;;;;;4.70;97297.00;;;;8444869;27;20858;-78
2022/03/15 05:45:48;;;;;;;17.23;7.47;;;;;4.70;97286.00;;;;8450269;28;20325;-75
2022/03/15 05:49:51;;;;;;;14.57;7.07;;;;;4.80;97294.00;;;;8450332;28;20215;-80
2022/03/15 05:53:55;;;;;;;13.73;6.43;;;;;4.80;97277.00;;;;8430703;28;20245;-82
2022/03/15 05:57:58;;;;;;;16.07;8.77;;;;;4.80;97285.00;;;;8415856;28;20276;-76
2022/03/15 06:02:02;;;;;;;14.87;7.40;;;;;5.00;97295.00;;;;8431941;28;21072;-79
2022/03/15 06:06:05;;;;;;;15.03;7.47;;;;;5.00;97295.00;;;;8433728;28;20248;-78
2022/03/15 06:10:10;;;;;;;16.40;8.13;;;;;5.10;97289.00;;;;8427113;28;20224;-80
2022/03/15 06:14:13;;;;;;;16.00;6.77;;;;;5.10;97282.00;;;;8443274;28;20224;-77
2022/03/15 06:18:16;;;;;;;14.10;6.90;;;;;5.20;97288.00;;;;8449743;28;20230;-77
2022/03/15 06:22:19;;;;;;;16.17;7.53;;;;;5.20;97278.00;;;;8444305;28;20826;-75
2022/03/15 06:26:23;;;;;;;18.87;7.27;;;;;5.30;97285.00;;;;8435142;28;20278;-74
2022/03/15 06:30:27;;;;;;;19.90;7.23;;;;;5.30;97282.00;;;;8446544;28;20227;-75
2022/03/15 06:34:30;;;;;;;8.53;5.07;;;;;5.40;97286.00;;;;8441951;28;20350;-73
2022/03/15 06:38:33;;;;;;;14.33;6.60;;;;;5.50;97292.00;;;;8423351;28;20279;-80
2022/03/15 06:42:39;;;;;;;14.13;6.63;;;;;5.50;97294.00;;;;8450177;28;20560;-81
2022/03/15 06:46:42;;;;;;;18.70;7.27;;;;;5.60;97284.00;;;;8443633;27;20338;-83
2022/03/15 06:50:45;;;;;;;18.53;6.53;;;;;5.70;97290.00;;;;8447050;28;20234;-88
2022/03/15 06:54:48;;;;;;;16.00;6.53;;;;;5.80;97283.00;;;;8440964;28;20219;-82
2022/03/15 06:58:53;;;;;;;14.60;6.70;;;;;5.90;97284.00;;;;8444189;28;20230;-83
2022/03/15 07:02:56;;;;;;;13.03;6.53;;;;;6.00;97279.00;;;;8434026;27;20296;-82
2022/03/15 07:06:59;;;;;;;13.53;6.57;;;;;6.10;97282.00;;;;8436892;28;20229;-77
2022/03/15 07:11:03;;;;;;;12.53;5.97;;;;;6.20;97274.00;;;;8429887;28;20241;-76
2022/03/15 07:15:08;;;;;;;13.60;6.97;;;;;6.30;97276.00;;;;8430162;28;20240;-78
2022/03/15 07:19:11;;;;;;;16.57;7.27;;;;;6.40;97284.00;;;;8432783;28;20215;-83
2022/03/15 07:23:14;;;;;;;16.03;6.67;;;;;6.50;97282.00;;;;8439595;28;20274;-82
2022/03/15 07:27:18;;;;;;;20.47;7.77;;;;;6.60;97281.00;;;;8430135;27;20230;-74
2022/03/15 07:31:22;;;;;;;18.93;7.37;;;;;6.80;97278.00;;;;8434877;27;20322;-77
2022/03/15 07:35:25;;;;;;;12.40;6.77;;;;;7.00;97274.00;;;;8437361;28;20233;-76
2022/03/15 07:39:28;;;;;;;13.93;6.70;;;;;7.10;97270.00;;;;8436396;27;20233;-77
2022/03/15 07:43:32;;;;;;;17.83;7.63;;;;;7.10;97267.00;;;;8435748;28;20225;-77
2022/03/15 07:47:37;;;;;;;12.57;7.13;;;;;7.20;97274.00;;;;8430332;28;20295;-82
2022/03/15 07:51:40;;;;;;;13.23;6.43;;;;;7.40;97283.00;;;;8431535;27;20305;-83
2022/03/15 07:55:43;;;;;;;14.33;6.57;;;;;7.70;97287.00;;;;8444163;27;20284;-82
2022/03/15 07:59:46;;;;;;;13.77;6.70;;;;;7.90;97280.00;;;;8430327;28;20229;-81
2022/03/15 08:03:52;;;;;;;10.57;6.40;;;;;8.20;97277.00;;;;8433589;28;20276;-78
2022/03/15 08:07:56;;;;;;;16.20;7.20;;;;;8.40;97279.00;;;;8445025;28;20230;-77
2022/03/15 08:11:59;;;;;;;13.23;6.30;;;;;8.60;97282.00;;;;8426692;28;20288;-78
2022/03/15 08:16:04;;;;;;;10.30;6.20;;;;;8.80;97272.00;;;;8440799;28;20228;-80
2022/03/15 08:20:12;;;;;;;17.63;6.80;;;;;9.20;97266.00;;;;8443944;28;20282;-80
2022/03/15 08:24:17;;;;;;;11.20;6.00;;;;;9.50;97271.00;;;;8431815;28;20227;-79
2022/03/15 08:28:20;;;;;;;13.50;6.67;;;;;9.70;97268.00;;;;8428897;28;20232;-79
2022/03/15 08:32:23;;;;;;;11.97;6.83;;;;;9.80;97261.00;;;;8447335;28;20307;-79
2022/03/15 08:36:28;;;;;;;15.83;6.30;;;;;10.00;97252.00;;;;8436165;28;20291;-79
2022/03/15 08:40:31;;;;;;;26.57;6.93;;;;;10.10;97235.00;;;;8442817;27;20234;-82
2022/03/15 08:44:34;;;;;;;13.93;6.87;;;;;10.20;97247.00;;;;8446535;27;20231;-80
2022/03/15 08:48:37;;;;;;;15.13;7.30;;;;;10.30;97235.00;;;;8453186;27;20222;-79
2022/03/15 08:52:41;;;;;;;13.07;5.83;;;;;10.60;97243.00;;;;8440965;27;20804;-81
2022/03/15 08:56:45;;;;;;;17.13;8.27;;;;;10.70;97249.00;;;;8439547;27;20227;-80
2022/03/15 09:00:49;;;;;;;14.53;7.47;;;;;10.90;97254.00;;;;8435063;27;20349;-78
2022/03/15 09:04:52;;;;;;;18.37;6.97;;;;;11.30;97242.00;;;;8443577;28;20669;-79
2022/03/15 09:08:57;;;;;;;26.63;7.03;;;;;11.50;97246.00;;;;8442736;27;20229;-77
2022/03/15 09:13:00;;;;;;;21.00;7.47;;;;;11.60;97237.00;;;;8426272;28;20249;-79
2022/03/15 09:17:03;;;;;;;26.57;8.63;;;;;11.60;97233.00;;;;8439650;28;20257;-77
2022/03/15 09:21:07;;;;;;;12.90;7.88;;;;;11.70;97221.00;;;;8442774;27;20329;-77
2022/03/15 09:25:12;;;;;;;13.50;7.03;;;;;11.70;97221.00;;;;8451772;27;20210;-78
2022/03/15 09:29:15;;;;;;;13.07;6.75;;;;;12.00;97222.00;;;;8428469;27;20280;-77
2022/03/15 09:33:19;;;;;;;19.45;7.50;;;;;12.20;97213.00;;;;8439909;28;20275;-77
2022/03/15 09:37:23;;;;;;;20.48;6.32;;;;;12.20;97212.00;;;;8435561;28;20692;-77
2022/03/15 09:41:28;;;;;;;21.13;7.17;;;;;12.20;97216.00;;;;8436228;27;20227;-77
2022/03/15 09:45:33;;;;;;;14.27;7.00;;;;;12.30;97213.00;;;;8448849;28;20351;-76
2022/03/15 09:49:37;;;;;;;24.40;10.18;;;;;12.60;97220.00;;;;8450934;28;20254;-76
2022/03/15 09:53:42;;;;;;;22.08;7.57;;;;;13.00;97218.00;;;;8438239;27;20240;-77
2022/03/15 09:57:46;;;;;;;14.02;7.78;;;;;13.10;97209.00;;;;8453745;27;20220;-78
2022/03/15 10:01:52;;;;;;;12.10;7.40;;;;;13.10;97209.00;;;;8436978;27;20235;-75
2022/03/15 10:05:55;;;;;;;14.55;8.15;;;;;13.20;97202.00;;;;8431405;28;20297;-76
2022/03/15 10:10:02;;;;;;;14.40;6.85;;;;;13.50;97192.00;;;;8432266;27;20227;-78
2022/03/15 10:14:07;;;;;;;14.80;7.47;;;;;13.80;97195.00;;;;8455990;27;21136;-79
2022/03/15 10:18:18;;;;;;;11.77;7.72;;;;;14.10;97188.00;;;;8439831;27;20232;-78
2022/03/15 10:22:22;;;;;;;13.20;7.80;;;;;14.50;97191.00;;;;8430091;27;20272;-79
2022/03/15 10:26:26;;;;;;;15.50;7.68;;;;;14.80;97189.00;;;;8439809;27;20230;-78
2022/03/15 10:30:31;;;;;;;15.32;7.93;;;;;15.00;97197.00;;;;8445136;27;20238;-78
2022/03/15 10:34:34;;;;;;;18.92;8.77;;;;;15.10;97170.00;;;;8440770;27;20238;-80
2022/03/15 10:38:45;;;;;;;12.75;8.07;;;;;15.10;97169.00;;;;8445376;27;20237;-78
2022/03/15 10:42:48;;;;;;;14.98;7.50;;;;;15.20;97171.00;;;;8453454;27;20222;-78
2022/03/15 10:47:01;;;;;;;14.35;8.35;;;;;15.30;97174.00;;;;8454379;27;20223;-76
2022/03/15 10:51:08;;;;;;;13.77;8.00;;;;;15.30;97167.00;;;;8448745;27;20229;-76
2022/03/15 10:55:13;;;;;;;16.88;7.78;;;;;15.40;97162.00;;;;8436031;27;20263;-77
2022/03/15 10:59:16;;;;;;;14.88;8.13;;;;;15.30;97158.00;;;;8435655;27;20286;-75
2022/03/15 11:03:25;;;;;;;12.93;8.20;;;;;15.20;97140.00;;;;8440010;27;20234;-74
2022/03/15 11:07:38;;;;;;;16.10;8.73;;;;;15.20;97144.00;;;;8450100;27;20222;-76
2022/03/15 11:11:42;;;;;;;15.65;8.75;;;;;15.30;97146.00;;;;8434627;28;20229;-77
2022/03/15 11:15:48;;;;;;;11.20;7.72;;;;;15.30;97127.00;;;;8439900;27;20224;-76
2022/03/15 11:19:55;;;;;;;15.68;8.65;;;;;15.40;97120.00;;;;8439428;27;20238;-77
2022/03/15 11:24:01;;;;;;;15.38;8.93;;;;;15.50;97109.00;;;;8437075;27;20290;-75
2022/03/15 11:28:07;;;;;;;14.23;8.05;;;;;15.60;97104.00;;;;8441280;27;20234;-76
2022/03/15 11:32:12;;;;;;;14.80;9.13;;;;;16.00;97091.00;;;;8429626;27;20231;-76
2022/03/15 11:36:18;;;;;;;15.20;7.63;;;;;16.30;97094.00;;;;8449246;28;20222;-75
2022/03/15 11:40:21;;;;;;;17.70;8.48;;;;;16.40;97067.00;;;;8430177;27;20227;-78
2022/03/15 11:44:33;;;;;;;17.35;9.48;;;;;16.30;97054.00;;;;8437740;27;20283;-79
2022/03/15 11:48:46;;;;;;;19.00;9.40;;;;;16.20;97062.00;;;;8425463;27;20315;-78
2022/03/15 11:53:03;;;;;;;18.25;9.25;;;;;16.20;97045.00;;;;8423868;28;20513;-78
2022/03/15 11:57:14;;;;;;;17.83;9.35;;;;;16.20;97034.00;;;;8432168;28;20305;-79
2022/03/15 12:01:19;;;;;;;17.95;9.43;;;;;16.20;97037.00;;;;8424445;28;20226;-77
2022/03/15 12:05:22;;;;;;;14.45;8.82;;;;;16.10;97036.00;;;;8422938;28;20554;-76
2022/03/15 12:09:30;;;;;;;16.92;9.13;;;;;15.90;97036.00;;;;8428084;28;20234;-75
2022/03/15 12:13:39;;;;;;;15.60;8.32;;;;;15.90;97029.00;;;;8441061;27;20258;-76
2022/03/15 12:17:43;;;;;;;19.10;9.77;;;;;15.80;97025.00;;;;8438998;27;20226;-75
2022/03/15 12:21:52;;;;;;;24.45;9.15;;;;;15.70;97011.00;;;;8438826;27;20745;-78
2022/03/15 12:25:58;;;;;;;16.75;9.55;;;;;15.60;96997.00;;;;8431628;27;20234;-79
2022/03/15 12:30:01;;;;;;;16.92;10.52;;;;;15.60;96986.00;;;;8435786;28;20683;-80
2022/03/15 12:34:08;;;;;;;17.70;9.98;;;;;15.50;96983.00;;;;8436963;28;20244;-77
2022/03/15 12:38:12;;;;;;;21.58;10.18;;;;;15.40;96973.00;;;;8440569;28;20237;-79
2022/03/15 12:42:17;;;;;;;20.58;9.75;;;;;15.40;96977.00;;;;8437039;28;20587;-76
2022/03/15 12:46:28;;;;;;;16.63;9.70;;;;;15.30;96962.00;;;;8440037;28;20230;-75
2022/03/15 12:50:32;;;;;;;19.40;10.05;;;;;15.40;96956.00;;;;8433246;27;20238;-78
2022/03/15 12:54:35;;;;;;;18.05;9.82;;;;;15.40;96944.00;;;;8438891;27;20634;-78
2022/03/15 12:58:42;;;;;;;23.75;10.85;;;;;15.50;96940.00;;;;8437130;27;20306;-76
2022/03/15 13:02:47;;;;;;;22.88;11.43;;;;;15.60;96926.00;;;;8436786;28;20673;-76
2022/03/15 13:06:51;;;;;;;15.95;9.82;;;;;15.70;96920.00;;;;8446170;28;20294;-75
2022/03/15 13:10:56;;;;;;;19.88;10.52;;;;;15.80;96910.00;;;;8435009;28;20222;-75
2022/03/15 13:15:00;;;;;;;21.80;10.60;;;;;15.70;96915.00;;;;8447273;28;20662;-75
2022/03/15 13:19:04;;;;;;;19.13;11.00;;;;;15.70;96915.00;;;;8431568;28;20279;-73
2022/03/15 13:23:08;;;;;;;17.33;10.40;;;;;15.70;96905.00;;;;8433788;28;20216;-75
2022/03/15 13:27:11;;;;;;;15.02;9.98;;;;;15.50;96907.00;;;;8442282;28;20652;-75
2022/03/15 13:31:23;;;;;;;18.80;10.38;;;;;15.30;96916.00;;;;8448621;28;20239;-75
2022/03/15 13:35:26;;;;;;;20.83;10.90;;;;;15.00;96908.00;;;;8443643;28;20241;-74
2022/03/15 13:39:29;;;;;;;18.45;10.20;;;;;14.90;96906.00;;;;8443003;28;20236;-73
2022/03/15 13:43:33;;;;;;;19.20;10.52;;;;;14.70;96902.00;;;;8441390;28;20222;-73
2022/03/15 13:47:37;;;;;;;18.65;10.77;;;;;14.50;96891.00;;;;8430271;28;20283;-72
2022/03/15 13:51:41;;;;;;;18.50;10.65;;;;;14.40;96909.00;;;;8434353;28;20918;-74
2022/03/15 13:55:44;;;;;;;18.60;10.80;;;;;14.20;96900.00;;;;8447828;27;20307;-75
2022/03/15 13:59:55;;;;;;;23.88;12.05;;;;;14.00;96897.00;;;;8436600;27;20234;-75
2022/03/15 14:04:04;;;;;;;21.63;11.00;;;;;13.80;96893.00;;;;8439991;27;20285;-74
2022/03/15 14:08:12;;;;;;;22.13;12.57;;;;;13.70;96867.00;;;;8448121;27;20227;-74
2022/03/15 14:12:18;;;;;;;21.83;12.95;;;;;13.60;96867.00;;;;8439564;28;20231;-75
2022/03/15 14:16:31;;;;;;;27.58;12.73;;;;;13.60;96863.00;;;;8438122;28;20245;-76
2022/03/15 14:20:41;;;;;;;25.20;12.43;;;;;13.40;96855.00;;;;8432308;27;20234;-75
2022/03/15 14:24:46;;;;;;;22.63;12.80;;;;;13.20;96840.00;;;;8441625;27;20214;-74
2022/03/15 14:28:54;;;;;;;22.73;13.75;;;;;12.90;96829.00;;;;8439897;28;20250;-75
2022/03/15 14:32:59;;;;;;;27.98;14.88;;;;;12.50;96814.00;;;;8435948;27;20290;-74
2022/03/15 14:37:08;;;;;;;25.50;13.65;;;;;12.30;96826.00;;;;8440592;28;20244;-75
2022/03/15 14:41:12;;;;;;;25.50;13.15;;;;;12.20;96821.00;;;;8438809;27;20238;-74
2022/03/15 14:45:17;;;;;;;22.98;13.55;;;;;11.90;96825.00;;;;8440250;28;20464;-73
2022/03/15 14:49:20;;;;;;;24.67;13.25;;;;;11.60;96825.00;;;;8446100;27;20239;-73
2022/03/15 14:53:28;;;;;;;30.17;15.13;;;;;11.40;96810.00;;;;8454165;27;20277;-73
2022/03/15 14:57:31;;;;;;;25.40;14.55;;;;;11.40;96798.00;;;;8435739;27;20220;-73
2022/03/15 15:01:34;;;;;;;28.83;16.65;;;;;11.30;96792.00;;;;8443552;28;20304;-72
2022/03/15 15:05:40;;;;;;;26.88;16.02;;;;;11.20;96792.00;;;;8442839;27;20233;-73
2022/03/15 15:09:45;;;;;;;32.20;16.27;;;;;11.10;96777.00;;;;8438696;27;20276;-73
2022/03/15 15:13:48;;;;;;;30.67;15.40;;;;;11.10;96764.00;;;;8433105;28;20726;-72
2022/03/15 15:17:52;;;;;;;34.42;16.73;;;;;11.00;96757.00;;;;8437535;28;20255;-72
2022/03/15 15:21:55;;;;;;;31.65;15.75;;;;;11.00;96756.00;;;;8442664;27;20333;-72
2022/03/15 15:25:59;;;;;;;28.63;16.57;;;;;10.90;96746.00;;;;8422091;28;20238;-72
2022/03/15 15:30:05;;;;;;;31.30;17.17;;;;;10.90;96741.00;;;;8434121;27;20226;-72
2022/03/15 15:34:08;;;;;;;29.65;17.02;;;;;10.80;96725.00;;;;8426542;27;20230;-72
2022/03/15 15:38:13;;;;;;;42.03;22.65;;;;;10.80;96713.00;;;;8427326;27;20288;-72
2022/03/15 15:42:20;;;;;;;43.93;22.43;;;;;10.80;96696.00;;;;8420148;28;20280;-68
2022/03/15 15:46:23;;;;;;;66.85;36.50;;;;;10.70;96700.00;;;;8439705;27;20226;-69
2022/03/15 15:50:27;;;;;;;51.35;27.88;;;;;10.60;96690.00;;;;8441938;27;20247;-68
2022/03/15 15:54:31;;;;;;;63.47;36.80;;;;;10.50;96681.00;;;;8431710;27;20631;-69
2022/03/15 15:58:36;;;;;;;39.57;21.40;;;;;10.30;96677.00;;;;8428571;28;20224;-69
2022/03/15 16:02:39;;;;;;;43.50;21.23;;;;;10.30;96663.00;;;;8435300;28;20264;-69
2022/03/15 16:06:44;;;;;;;39.67;19.37;;;;;10.20;96662.00;;;;8442115;27;20310;-69
2022/03/15 16:10:47;;;;;;;40.00;21.30;;;;;10.10;96660.00;;;;8430510;28;20231;-68
2022/03/15 16:14:51;;;;;;;62.47;41.20;;;;;10.10;96648.00;;;;8447186;28;20248;-68
2022/03/15 16:18:54;;;;;;;41.90;21.77;;;;;10.00;96651.00;;;;8438352;28;20312;-68
2022/03/15 16:23:00;;;;;;;51.43;24.10;;;;;10.00;96620.00;;;;8437084;28;20219;-68
2022/03/15 16:27:03;;;;;;;49.80;22.57;;;;;9.90;96615.00;;;;8428316;28;20235;-68
2022/03/15 16:31:13;;;;;;;45.50;21.07;;;;;9.90;96608.00;;;;8437465;28;20222;-68
2022/03/15 16:35:17;;;;;;;53.20;21.63;;;;;9.90;96615.00;;;;8428882;28;20219;-68
2022/03/15 16:39:39;;;;;;;50.73;21.63;;;;;9.90;96619.00;;;;8438009;28;20229;-68
2022/03/15 16:43:42;;;;;;;46.00;19.97;;;;;9.90;96614.00;;;;8427982;28;20744;-68
2022/03/15 16:47:47;;;;;;;45.93;21.07;;;;;9.80;96618.00;;;;8429273;28;20368;-68
2022/03/15 16:51:50;;;;;;;45.50;20.30;;;;;9.70;96630.00;;;;8423240;28;20284;-68
2022/03/15 16:55:53;;;;;;;46.37;20.50;;;;;9.60;96634.00;;;;8436396;28;20240;-68
2022/03/15 16:59:56;;;;;;;50.20;21.50;;;;;9.60;96625.00;;;;8434874;27;20219;-68
2022/03/15 17:08:22;;;;;;;45.40;21.43;;;;;9.60;96657.00;;;;8436213;27;20217;-71
2022/03/15 17:12:25;;;;;;;46.53;21.27;;;;;9.60;96667.00;;;;8439368;27;20240;-71
2022/03/15 17:16:29;;;;;;;51.13;20.37;;;;;9.60;96674.00;;;;8443606;27;20320;-70
2022/03/15 17:20:34;;;;;;;49.90;21.43;;;;;9.60;96654.00;;;;8439407;27;20914;-71
2022/03/15 17:24:38;;;;;;;55.17;23.00;;;;;9.60;96653.00;;;;8445451;27;20223;-69
2022/03/15 17:28:41;;;;;;;54.90;23.53;;;;;9.60;96646.00;;;;8430315;27;20312;-71
2022/03/15 17:32:47;;;;;;;51.43;21.40;;;;;9.60;96647.00;;;;8450632;27;20235;-71
2022/03/15 17:36:55;;;;;;;49.80;22.33;;;;;9.60;96647.00;;;;8435485;27;20265;-72
2022/03/15 17:40:58;;;;;;;54.00;24.00;;;;;9.50;96655.00;;;;8440108;28;20318;-72
2022/03/15 17:45:02;;;;;;;57.00;24.43;;;;;9.40;96654.00;;;;8430786;28;20248;-72
2022/03/15 17:49:08;;;;;;;61.67;24.43;;;;;9.40;96642.00;;;;8442602;27;20672;-72
2022/03/15 17:53:20;;;;;;;59.23;24.57;;;;;9.50;96661.00;;;;8445574;27;20256;-71
2022/03/15 17:57:25;;;;;;;61.60;24.13;;;;;9.40;96670.00;;;;8442266;27;20232;-71
2022/03/15 18:01:31;;;;;;;62.43;24.17;;;;;9.40;96665.00;;;;8432636;27;20223;-71
2022/03/15 18:05:34;;;;;;;60.83;23.13;;;;;9.50;96674.00;;;;8437669;27;20218;-73
2022/03/15 18:09:41;;;;;;;57.80;23.10;;;;;9.60;96665.00;;;;8429117;28;20246;-73
2022/03/15 18:13:47;;;;;;;78.03;28.07;;;;;9.50;96661.00;;;;8422671;27;20279;-71
2022/03/15 18:17:50;;;;;;;113.87;35.50;;;;;9.50;96648.00;;;;8440573;27;20291;-71
2022/03/15 18:21:54;;;;;;;78.00;27.43;;;;;9.40;96645.00;;;;8434124;27;20748;-71
2022/03/15 18:26:01;;;;;;;87.87;33.20;;;;;9.40;96645.00;;;;8425798;27;20222;-72
2022/03/15 18:30:05;;;;;;;64.30;25.30;;;;;9.40;96636.00;;;;8435237;27;20234;-72
2022/03/15 18:34:08;;;;;;;65.80;23.77;;;;;9.30;96646.00;;;;8434749;28;20292;-72
2022/03/15 18:38:12;;;;;;;65.50;23.90;;;;;9.20;96647.00;;;;8422060;27;20219;-71
2022/03/15 18:42:16;;;;;;;60.73;24.70;;;;;9.30;96639.00;;;;8434498;27;24014;-70
2022/03/15 18:46:26;;;;;;;64.67;24.53;;;;;9.30;96647.00;;;;8428981;27;20716;-70
2022/03/15 18:50:29;;;;;;;69.33;25.47;;;;;9.30;96625.00;;;;8440325;28;20279;-71
2022/03/15 18:54:32;;;;;;;61.80;24.97;;;;;9.30;96636.00;;;;8433113;28;20529;-72
2022/03/15 18:58:37;;;;;;;68.93;25.43;;;;;9.20;96636.00;;;;8433170;28;20238;-72
2022/03/15 19:02:40;;;;;;;64.73;26.27;;;;;9.20;96640.00;;;;8445783;28;20219;-72
2022/03/15 19:06:46;;;;;;;66.63;23.33;;;;;9.20;96630.00;;;;8441860;28;20230;-72
2022/03/15 19:10:50;;;;;;;62.00;24.80;;;;;9.20;96635.00;;;;8438123;28;20272;-73
2022/03/15 19:14:54;;;;;;;67.73;25.23;;;;;9.30;96638.00;;;;8438203;28;20226;-71
2022/03/15 19:18:59;;;;;;;65.70;26.17;;;;;9.30;96640.00;;;;8432056;28;20942;-72
2022/03/15 19:23:04;;;;;;;69.07;25.20;;;;;9.30;96639.00;;;;8431840;27;20645;-70
2022/03/15 19:27:07;;;;;;;68.53;25.97;;;;;9.30;96655.00;;;;8438230;27;20367;-71
2022/03/15 19:31:17;;;;;;;71.33;25.93;;;;;9.20;96643.00;;;;8422626;27;20280;-71
2022/03/15 19:35:21;;;;;;;74.17;27.20;;;;;9.20;96649.00;;;;8432666;27;20257;-71
2022/03/15 19:39:24;;;;;;;68.33;24.90;;;;;9.20;96652.00;;;;8430142;27;20305;-71
2022/03/15 19:43:26;;;;;;;63.83;23.77;;;;;9.20;96648.00;;;;8430776;27;20303;-72
2022/03/15 19:47:33;;;;;;;69.23;24.43;;;;;9.20;96646.00;;;;8429152;28;20273;-72
2022/03/15 19:51:36;;;;;;;59.97;21.13;;;;;9.20;96644.00;;;;8441513;28;21090;-71
2022/03/15 19:55:40;;;;;;;46.27;19.17;;;;;9.20;96634.00;;;;8435356;27;20327;-72
2022/03/15 19:59:45;;;;;;;45.37;18.10;;;;;9.20;96635.00;;;;8431638;27;20230;-73
2022/03/15 20:03:51;;;;;;;35.07;16.43;;;;;9.10;96644.00;;;;8432758;28;20254;-72
2022/03/15 20:07:56;;;;;;;37.30;16.53;;;;;9.10;96634.00;;;;8429568;27;23369;-72
2022/03/15 20:12:02;;;;;;;44.83;15.90;;;;;9.10;96631.00;;;;8435556;28;20307;-72
2022/03/15 20:16:05;;;;;;;48.77;16.93;;;;;9.10;96623.00;;;;8426213;28;20307;-73